Bookmark and Share
Track history (hours):
 

Havbugvin

Last reported at 2014-Feb-21 16:33 UTC. Time now 2014-Apr-17 18:37 UTC.
Position N 62°04' W 007°20'.
Warning: this ship's position is 55 days out of date.

Length 38 m.

Type: Fishing. MMSI: 231181000.

NotesDate/timePositionNaut miles runAvg speedWind from/ knotsBaromVisibWave heightAir tempDewpointWater temp
2014-Feb-21 16:33N 62°04' W 007°20'0 0.0
2014-Feb-21 15:33N 62°04' W 007°20'0 0.0
2014-Feb-21 14:33N 62°04' W 007°20'0 0.0
2014-Feb-21 13:33N 62°04' W 007°20'0 0.0
2014-Feb-21 12:33N 62°04' W 007°20'0 0.0
2014-Feb-21 11:33N 62°04' W 007°20'0 0.0
2014-Feb-21 10:34N 62°04' W 007°20'0 0.0
2014-Feb-21 09:33N 62°04' W 007°20'0 0.0
2014-Feb-21 08:33N 62°04' W 007°20'0 0.0
2014-Feb-21 07:33N 62°04' W 007°20'0 0.0
2014-Feb-21 06:33N 62°04' W 007°20'0 0.0
2014-Feb-21 05:33N 62°04' W 007°20'0 0.0
2014-Feb-21 04:33N 62°04' W 007°20'0 0.0
2014-Feb-21 03:33N 62°04' W 007°20'0 0.0
2014-Feb-21 02:33N 62°04' W 007°20'0 0.0
2014-Feb-21 01:33N 62°04' W 007°20'0 0.0
2014-Feb-21 00:33N 62°04' W 007°20'0 0.0
2014-Feb-20 23:33N 62°04' W 007°20'0 0.0
2014-Feb-20 22:33N 62°04' W 007°20'0 0.0
2014-Feb-20 21:33N 62°04' W 007°20'0 0.0
2014-Feb-20 20:33N 62°04' W 007°20'0 0.0
2014-Feb-20 19:33N 62°04' W 007°20'0 0.0
2014-Feb-20 18:33N 62°04' W 007°20'0 0.0
2014-Feb-20 17:33N 62°04' W 007°20'0 0.0
2014-Feb-20 16:33N 62°04' W 007°20'0 0.0
2014-Feb-20 15:33N 62°04' W 007°20'0 0.0
2014-Feb-20 14:33N 62°04' W 007°20'0 0.0
2014-Feb-20 13:33N 62°04' W 007°20'0 0.0
2014-Feb-20 12:33N 62°04' W 007°20'0 0.0
2014-Feb-20 11:33N 62°04' W 007°20'0 0.0
2014-Feb-20 10:33N 62°04' W 007°20'0 0.0
2014-Feb-20 09:33N 62°04' W 007°20'0 0.0
2014-Feb-20 08:33N 62°04' W 007°20'0 0.0
2014-Feb-20 07:33N 62°04' W 007°20'0 0.0
2014-Feb-20 06:33N 62°04' W 007°20'0 0.0
2014-Feb-20 05:33N 62°04' W 007°20'0 0.0
2014-Feb-20 04:33N 62°04' W 007°20'0 0.0
2014-Feb-20 03:33N 62°04' W 007°20'0 0.0
2014-Feb-20 02:33N 62°04' W 007°20'0 0.0
2014-Feb-20 01:33N 62°04' W 007°20'0 0.0
2014-Feb-20 00:33N 62°04' W 007°20'1 0.7
2014-Feb-19 23:33N 62°05' W 007°21'8 7.8
2014-Feb-19 22:33N 62°03' W 007°37'7 7.2
2014-Feb-19 21:33N 62°01' W 007°51'7 7.4
2014-Feb-19 20:33N 61°58' W 008°06'3 3.2
2014-Feb-19 19:33N 61°56' W 008°12'2 2.0
2014-Feb-19 18:33N 61°55' W 008°08'2 1.9
2014-Feb-19 17:33N 61°55' W 008°04'2 1.8
2014-Feb-19 16:33N 61°55' W 008°01'2 1.8
2014-Feb-19 15:33N 61°55' W 007°57'2 1.6
2014-Feb-19 14:33N 61°55' W 007°53'2 1.8
2014-Feb-19 13:33N 61°55' W 007°50'1 1.3
2014-Feb-19 12:33N 61°56' W 007°51'2 1.9
2014-Feb-19 11:33N 61°56' W 007°55'2 1.9
2014-Feb-19 10:33N 61°56' W 007°59'4 4.2
2014-Feb-19 09:33N 61°56' W 008°08'2 2.3
2014-Feb-19 08:33N 61°54' W 008°04'7 6.7
2014-Feb-19 07:33N 61°55' W 007°50'5 4.9
2014-Feb-19 06:33N 61°55' W 008°01'2 1.9
2014-Feb-19 05:33N 61°55' W 008°05'2 2.1
2014-Feb-19 04:33N 61°56' W 008°00'1 0.7
2014-Feb-19 03:33N 61°56' W 007°59'4 4.3
2014-Feb-19 02:33N 61°55' W 008°08'2 1.9
2014-Feb-19 01:33N 61°55' W 008°04'2 1.6
2014-Feb-19 00:33N 61°55' W 008°00'1 1.4
2014-Feb-18 23:33N 61°56' W 008°03'2 1.7
2014-Feb-18 22:33N 61°56' W 008°06'1 1.4
2014-Feb-18 21:33N 61°57' W 008°09'2 1.5
2014-Feb-18 20:33N 61°56' W 008°12'1 1.3
2014-Feb-18 19:33N 61°56' W 008°15'2 1.9
2014-Feb-18 18:33N 61°54' W 008°12'2 2.1
2014-Feb-18 17:33N 61°54' W 008°07'1 0.8
2014-Feb-18 16:33N 61°54' W 008°06'2 1.9
2014-Feb-18 15:36N 61°54' W 008°02'2 1.9
2014-Feb-18 14:33N 61°54' W 007°58'2 1.8
2014-Feb-18 13:33N 61°54' W 007°54'2 1.6
2014-Feb-18 12:33N 61°56' W 007°53'2 1.9
2014-Feb-18 11:33N 61°56' W 007°57'5 4.9
2014-Feb-18 10:33N 61°55' W 008°07'2 1.8
2014-Feb-18 09:33N 61°56' W 008°03'5 5.2
2014-Feb-18 08:33N 61°55' W 008°14'7 6.7
2014-Feb-18 07:33N 61°54' W 007°60'2 2.0
2014-Feb-18 06:33N 61°56' W 007°57'7 7.5
2014-Feb-18 05:33N 61°56' W 007°41'10 9.9
2014-Feb-18 04:33N 61°56' W 007°20'1110.6
2014-Feb-18 03:33N 61°56' W 006°57'1211.7
2014-Feb-18 02:33N 61°57' W 006°33'10 9.8
2014-Feb-18 01:33N 62°03' W 006°16'9 9.3
2014-Feb-18 00:33N 62°09' W 006°00'0 0.5
2014-Feb-17 23:33N 62°09' W 006°01'2 2.0
2014-Feb-17 22:33N 62°09' W 006°05'1 1.1
2014-Feb-17 21:33N 62°09' W 006°03'2 1.7
2014-Feb-17 20:33N 62°09' W 005°59'1 1.1
2014-Feb-17 19:33N 62°08' W 006°01'1 0.6
2014-Feb-17 18:33N 62°08' W 006°02'3 3.1
2014-Feb-17 17:33N 62°10' W 005°59'2 1.8
2014-Feb-17 16:33N 62°12' W 005°59'1 0.9
2014-Feb-17 15:33N 62°13' W 006°00'1 1.4
2014-Feb-17 14:33N 62°12' W 006°00'2 1.6
2014-Feb-17 13:33N 62°10' W 005°60'1 0.6
2014-Feb-17 12:33N 62°10' W 006°01'2 1.9
2014-Feb-17 11:33N 62°12' W 006°01'1 0.8
2014-Feb-17 10:33N 62°12' W 006°03'2 1.9
2014-Feb-17 09:33N 62°10' W 006°02'2 2.3
2014-Feb-17 08:33N 62°08' W 005°59'2 1.2
2014-Feb-17 06:33N 62°10' W 005°60'1 1.5
2014-Feb-17 05:33N 62°11' W 006°03'1 0.8
2014-Feb-17 04:33N 62°10' W 006°03'1 1.1
2014-Feb-17 03:33N 62°10' W 006°00'1 1.2
2014-Feb-17 02:33N 62°09' W 005°58'2 1.6
2014-Feb-17 01:33N 62°10' W 005°60'1 1.3
2014-Feb-17 00:33N 62°11' W 006°02'1 1.0
2014-Feb-16 23:33N 62°12' W 005°60'2 1.6
2014-Feb-16 22:33N 62°12' W 006°03'4 4.0
2014-Feb-16 21:33N 62°09' W 005°58'4 3.8
2014-Feb-16 20:33N 62°12' W 006°03'4 2.2
2014-Feb-16 18:33N 62°08' W 006°01'1 1.4
2014-Feb-16 17:33N 62°08' W 005°59'1 1.2
2014-Feb-16 16:33N 62°09' W 006°01'2 1.6
2014-Feb-16 15:33N 62°09' W 006°04'1 1.2
2014-Feb-16 14:33N 62°10' W 006°02'2 1.6
2014-Feb-16 13:33N 62°10' W 005°59'1 0.8
2014-Feb-16 12:33N 62°10' W 006°00'2 1.9
2014-Feb-16 11:33N 62°10' W 006°04'2 1.8
2014-Feb-16 10:33N 62°09' W 006°07'2 1.9
2014-Feb-16 09:33N 62°07' W 006°07'2 1.6
2014-Feb-16 08:33N 62°05' W 006°08'4 4.5
2014-Feb-16 07:33N 62°09' W 006°02'2 1.5
2014-Feb-16 06:33N 62°10' W 006°00'5 5.4
2014-Feb-16 05:33N 62°06' W 006°08'5 5.0
2014-Feb-16 04:33N 62°09' W 005°59'2 1.8
2014-Feb-16 03:33N 62°10' W 006°00'1 1.5
2014-Feb-16 02:33N 62°12' W 006°01'2 2.4
2014-Feb-16 01:33N 62°09' W 006°01'2 1.9
2014-Feb-16 00:33N 62°11' W 006°02'2 1.6
2014-Feb-15 23:33N 62°10' W 006°00'2 1.6
2014-Feb-15 22:33N 62°11' W 006°00'2 1.6
2014-Feb-15 21:33N 62°13' W 006°03'1 1.1
2014-Feb-15 20:33N 62°13' W 006°05'2 2.0
2014-Feb-15 19:33N 62°11' W 006°06'2 1.9
2014-Feb-15 18:33N 62°09' W 006°06'2 1.8
2014-Feb-15 17:33N 62°09' W 006°02'2 2.0
2014-Feb-15 16:33N 62°09' W 005°58'2 1.9
2014-Feb-15 15:33N 62°09' W 005°54'1 1.4
2014-Feb-15 14:33N 62°10' W 005°53'1 1.3
2014-Feb-15 13:33N 62°11' W 005°55'5 2.7
2014-Feb-15 11:33N 62°09' W 006°06'8 7.7
2014-Feb-15 10:33N 62°17' W 006°06'9 9.0
2014-Feb-15 09:34N 62°26' W 006°12'8 8.4
2014-Feb-15 08:33N 62°33' W 006°22'8 8.0
2014-Feb-15 07:33N 62°39' W 006°33'2 2.4
2014-Feb-15 06:33N 62°41' W 006°33'2 1.6
2014-Feb-15 05:33N 62°43' W 006°33'1 0.5
2014-Feb-15 03:33N 62°42' W 006°35'2 1.5
2014-Feb-15 02:32N 62°41' W 006°35'1 0.9
2014-Feb-15 01:33N 62°41' W 006°36'1 1.2
2014-Feb-15 00:33N 62°43' W 006°36'2 1.6
2014-Feb-14 23:33N 62°44' W 006°35'1 0.9
2014-Feb-14 22:33N 62°44' W 006°37'2 1.7
2014-Feb-14 21:33N 62°42' W 006°37'1 1.0
2014-Feb-14 20:32N 62°41' W 006°38'1 1.5
2014-Feb-14 19:33N 62°42' W 006°38'1 1.5
2014-Feb-14 18:33N 62°44' W 006°38'1 0.5
2014-Feb-14 17:09N 62°44' W 006°40'2 1.5
2014-Feb-14 15:33N 62°42' W 006°41'1 0.5
2014-Feb-14 13:30N 62°42' W 006°42'1 0.7
2014-Feb-14 12:31N 62°42' W 006°40'3 3.1
2014-Feb-14 11:30N 62°44' W 006°34'1 0.9
2014-Feb-14 10:17N 62°44' W 006°37'3 1.6
2014-Feb-14 08:30N 62°42' W 006°41'1 0.4
2014-Feb-14 06:24N 62°42' W 006°42'2 0.9
2014-Feb-14 04:15N 62°44' W 006°45'1 1.4
2014-Feb-14 03:31N 62°43' W 006°45'2 1.6
2014-Feb-14 02:28N 62°41' W 006°46'1 1.0
2014-Feb-14 01:33N 62°42' W 006°46'2 1.7
2014-Feb-14 00:33N 62°44' W 006°46'1 0.6
2014-Feb-13 23:32N 62°44' W 006°47'2 1.6
2014-Feb-13 22:33N 62°42' W 006°48'1 0.9
2014-Feb-13 21:27N 62°42' W 006°49'1 1.5
2014-Feb-13 20:32N 62°43' W 006°49'1 0.8
2014-Feb-13 19:33N 62°43' W 006°50'2 1.8
2014-Feb-13 18:20N 62°41' W 006°51'1 0.8
2014-Feb-13 17:29N 62°41' W 006°52'3 1.3
2014-Feb-13 15:20N 62°44' W 006°54'1 1.5
2014-Feb-13 14:33N 62°42' W 006°54'2 1.4
2014-Feb-13 13:29N 62°41' W 006°54'3 3.4
2014-Feb-13 12:33N 62°42' W 006°47'2 1.1
2014-Feb-13 11:10N 62°43' W 006°45'1 1.6
2014-Feb-13 10:17N 62°44' W 006°47'2 2.0
2014-Feb-13 09:21N 62°43' W 006°50'2 1.4
2014-Feb-13 08:11N 62°44' W 006°54'4 5.6
2014-Feb-13 07:33N 62°40' W 006°55'2 2.4
2014-Feb-13 06:33N 62°39' W 006°59'2 1.7
2014-Feb-13 05:16N 62°39' W 007°04'1 0.7
2014-Feb-13 04:13N 62°40' W 007°03'1 1.7
2014-Feb-13 03:33N 62°41' W 007°03'2 1.9
2014-Feb-13 02:16N 62°43' W 007°02'1 1.4
2014-Feb-13 01:23N 62°42' W 007°01'2 1.6
2014-Feb-13 00:18N 62°40' W 007°01'1 0.9
2014-Feb-12 23:21N 62°40' W 006°60'5 1.6
2014-Feb-12 20:26N 62°45' W 006°59'1 1.4
2014-Feb-12 19:30N 62°43' W 006°58'2 1.6
2014-Feb-12 18:33N 62°42' W 006°58'1 1.0
2014-Feb-12 17:32N 62°41' W 006°57'1 1.5
2014-Feb-12 16:33N 62°42' W 006°57'1 1.0
2014-Feb-12 15:32N 62°43' W 006°56'1 1.3
2014-Feb-12 14:33N 62°42' W 006°56'2 1.4
2014-Feb-12 13:24N 62°40' W 006°56'4 1.5
2014-Feb-12 10:33N 62°43' W 007°03'3 3.3
2014-Feb-12 09:33N 62°44' W 006°56'1 1.2
2014-Feb-12 08:24N 62°44' W 006°59'5 5.8
2014-Feb-12 07:33N 62°40' W 006°60'2 1.9
2014-Feb-12 06:30N 62°41' W 007°03'2 1.5
2014-Feb-12 05:16N 62°43' W 007°04'1 0.6
2014-Feb-12 04:23N 62°43' W 007°03'1 1.4
2014-Feb-12 03:33N 62°42' W 007°04'1 0.5
2014-Feb-12 02:24N 62°42' W 007°03'2 1.8
2014-Feb-12 01:32N 62°44' W 007°03'1 0.7
2014-Feb-12 00:33N 62°44' W 007°04'2 1.7
2014-Feb-11 23:15N 62°42' W 007°05'1 1.8
2014-Feb-11 22:33N 62°41' W 007°05'1 0.7
2014-Feb-11 21:33N 62°41' W 007°06'2 1.6
2014-Feb-11 20:33N 62°43' W 007°06'3 1.4
2014-Feb-11 18:29N 62°45' W 007°06'2 1.6
2014-Feb-11 17:24N 62°44' W 007°08'  

Dump ship's entire track history

sailing weather and tide predictions

Havbugvin — XPYL — position and weather